Aérodrome :
LOGIN :

S'inscrire | Disclaimer

   EN    FR    IT 

 










Légende :    VFR   VFR Marginal   IFR   IFR Intensif   IFR Très Intensif
Visi : 
Plafond : 
>= 8 km
>= 3000ft
5 à 8 km
1000 à 3000 ft
1500m à 5 km
500 à 1000 ft
800 à 1500m
200 à 500 ft
< 800m
< 200 ft
Symboles :   Orages  Brouillard  Fortes neiges  Fortes précipitations  Vent > 20 kt
SIGMETs :   Divers  Orages  Givrage  Turbulence  Onde Orograph.  Cendres Volcan.






- Altitude de l'aérodrome : 622 ft
- Code IATA : BRS


EGGD - Bristol Int.

DERNIER METAR :
  • 081120Z AUTO 22009KT 9999 NCD 07/01 Q1025

METARs EXPIRÉS :
  • 081050Z AUTO 23007KT 9999 SCT034 07/01 Q1025
  • 081020Z AUTO 24008KT 9999 BKN034 06/M00 Q1025
  • 080950Z AUTO 23007KT 9999 FEW042 06/M00 Q1025
  • 080920Z AUTO 22006KT 9999 FEW033 05/00 Q1025
  • 080850Z AUTO 24007KT 9999 BKN032 04/00 Q1025

TAF TAF EGGD
Valide du 08 à 12h jusqu'au 09 à 12h UTC


081057Z 0812/0912 25008KT 9999 SCT035
TEMPO 0906/0912 6000 -RA BKN010
PROB30
TEMPO 0906/0909 BKN008
ATIS : +44 1275 473 666



MET'MAP, la Météo Aéronautique d'un coup d'oeil ! - Copyright ORBIFLY Décembre 2007 - Disclaimer

ORBIFLY MET'MAP TEAM :

Programmation & Développement : Alexandra Zaïnal
Sur une idée originale de : Baudouin d'Aumeries
Assistance à la programmation : Marc-Olivier Méhu
Soutien technique & logistique : Manuel Goepfert

Contact : metmap@orbifly.com




SOURCES & CREDITS :

   NOAA